Terminal Aerodrome Forecast
Issued by NWS Wilmington, NC

Home | Current Version | Previous Version | Text Only | Print | Product List | Glossary On
Versions: 1 2 3 4 5 6 7 8 9 10 11 12 13 14 15 16 17 18 19 20 21
000
FTUS42 KILM 202300
TAFILM
TAF
KILM 202320Z 2100/2124 01020G35KT P6SM VCSH OVC012
     FM210200 01017G23KT P6SM SCT008 BKN015 OVC040
     FM211400 34015G20KT P6SM SCT020 SCT080
     FM211700 36015KT P6SM FEW020 SCT060=

USA.gov is the U.S. government's official web portal to all federal, state and local government web resources and services.